Aviation Digital Data Service (ADDS)

Output produced by TAFs form (0030 UTC 27 May 2017)
found at http://www.aviationweather.gov/adds/tafs/
 
KABE 262337Z 2700/2724 29010KT P6SM BKN060 
     FM270300 28006KT P6SM FEW060 
     FM271100 00000KT P6SM SCT200 
     FM271400 VRB03KT P6SM BKN110 
     TEMPO 2715/2719 6SM -SHRA OVC035 
     FM272100 VRB03KT P6SM BKN050